sensor_id;sensor_type;location;lat;lon;timestamp;P1;durP1;ratioP1;P2;durP2;ratioP2
55800;SDS011;41730;51.960;20.158;2022-08-03T00:02:20;13.50;;;6.80;;
55800;SDS011;41730;51.960;20.158;2022-08-03T00:04:52;8.70;;;7.20;;
55800;SDS011;41730;51.960;20.158;2022-08-03T00:07:24;9.40;;;7.20;;
55800;SDS011;41730;51.960;20.158;2022-08-03T00:09:55;9.60;;;7.40;;
55800;SDS011;41730;51.960;20.158;2022-08-03T00:12:27;8.70;;;7.40;;
55800;SDS011;41730;51.960;20.158;2022-08-03T00:14:58;8.40;;;7.50;;
55800;SDS011;41730;51.960;20.158;2022-08-03T00:17:35;7.40;;;6.70;;
55800;SDS011;41730;51.960;20.158;2022-08-03T00:20:20;9.70;;;6.90;;
55800;SDS011;41730;51.960;20.158;2022-08-03T00:22:52;9.00;;;6.90;;
55800;SDS011;41730;51.960;20.158;2022-08-03T00:25:24;10.20;;;7.50;;
55800;SDS011;41730;51.960;20.158;2022-08-03T00:27:56;10.60;;;7.20;;
55800;SDS011;41730;51.960;20.158;2022-08-03T00:30:28;10.60;;;8.00;;
55800;SDS011;41730;51.960;20.158;2022-08-03T00:33:00;11.70;;;7.40;;
55800;SDS011;41730;51.960;20.158;2022-08-03T00:35:35;10.20;;;7.40;;
55800;SDS011;41730;51.960;20.158;2022-08-03T00:38:18;12.20;;;6.80;;
55800;SDS011;41730;51.960;20.158;2022-08-03T00:40:49;10.40;;;7.10;;
55800;SDS011;41730;51.960;20.158;2022-08-03T00:43:23;11.50;;;7.40;;
55800;SDS011;41730;51.960;20.158;2022-08-03T00:45:55;9.50;;;7.20;;
55800;SDS011;41730;51.960;20.158;2022-08-03T00:48:26;9.60;;;7.50;;
55800;SDS011;41730;51.960;20.158;2022-08-03T00:51:00;10.60;;;7.80;;
55800;SDS011;41730;51.960;20.158;2022-08-03T00:53:33;8.20;;;7.10;;
55800;SDS011;41730;51.960;20.158;2022-08-03T00:56:06;10.80;;;7.00;;
55800;SDS011;41730;51.960;20.158;2022-08-03T00:58:38;10.20;;;6.70;;
55800;SDS011;41730;51.960;20.158;2022-08-03T01:01:10;10.60;;;7.00;;
55800;SDS011;41730;51.960;20.158;2022-08-03T01:03:42;8.60;;;6.50;;
55800;SDS011;41730;51.960;20.158;2022-08-03T01:06:22;10.60;;;6.70;;
55800;SDS011;41730;51.960;20.158;2022-08-03T01:09:01;7.80;;;7.00;;
55800;SDS011;41730;51.960;20.158;2022-08-03T01:11:39;12.10;;;7.60;;
55800;SDS011;41730;51.960;20.158;2022-08-03T01:14:31;7.10;;;6.30;;
55800;SDS011;41730;51.960;20.158;2022-08-03T01:17:09;8.50;;;6.30;;
55800;SDS011;41730;51.960;20.158;2022-08-03T01:19:49;7.90;;;6.60;;
55800;SDS011;41730;51.960;20.158;2022-08-03T01:22:36;8.10;;;7.10;;
55800;SDS011;41730;51.960;20.158;2022-08-03T01:25:23;8.70;;;7.30;;
55800;SDS011;41730;51.960;20.158;2022-08-03T01:28:18;8.60;;;7.70;;
55800;SDS011;41730;51.960;20.158;2022-08-03T01:31:05;12.10;;;7.90;;
55800;SDS011;41730;51.960;20.158;2022-08-03T01:33:42;11.00;;;6.80;;
55800;SDS011;41730;51.960;20.158;2022-08-03T01:36:21;8.40;;;6.40;;
55800;SDS011;41730;51.960;20.158;2022-08-03T01:39:00;8.30;;;6.60;;
55800;SDS011;41730;51.960;20.158;2022-08-03T01:41:39;9.10;;;6.40;;
55800;SDS011;41730;51.960;20.158;2022-08-03T01:44:18;11.60;;;7.10;;
55800;SDS011;41730;51.960;20.158;2022-08-03T01:46:59;10.10;;;7.10;;
55800;SDS011;41730;51.960;20.158;2022-08-03T01:49:36;11.00;;;7.50;;
55800;SDS011;41730;51.960;20.158;2022-08-03T01:52:13;11.70;;;8.20;;
55800;SDS011;41730;51.960;20.158;2022-08-03T01:54:50;10.00;;;6.90;;
55800;SDS011;41730;51.960;20.158;2022-08-03T01:57:25;10.90;;;7.70;;
55800;SDS011;41730;51.960;20.158;2022-08-03T02:00:21;10.70;;;7.20;;
55800;SDS011;41730;51.960;20.158;2022-08-03T02:02:56;11.90;;;7.40;;
55800;SDS011;41730;51.960;20.158;2022-08-03T02:05:31;8.90;;;7.60;;
55800;SDS011;41730;51.960;20.158;2022-08-03T02:08:09;10.60;;;8.60;;
55800;SDS011;41730;51.960;20.158;2022-08-03T02:10:47;9.00;;;7.90;;
55800;SDS011;41730;51.960;20.158;2022-08-03T02:13:22;10.50;;;7.50;;
55800;SDS011;41730;51.960;20.158;2022-08-03T02:15:59;11.40;;;7.70;;
55800;SDS011;41730;51.960;20.158;2022-08-03T02:18:35;9.00;;;6.90;;
55800;SDS011;41730;51.960;20.158;2022-08-03T02:21:10;8.00;;;7.20;;
55800;SDS011;41730;51.960;20.158;2022-08-03T02:24:05;10.80;;;7.30;;
55800;SDS011;41730;51.960;20.158;2022-08-03T02:26:39;8.80;;;7.80;;
55800;SDS011;41730;51.960;20.158;2022-08-03T02:29:15;8.80;;;6.80;;
55800;SDS011;41730;51.960;20.158;2022-08-03T02:32:09;11.10;;;6.90;;
55800;SDS011;41730;51.960;20.158;2022-08-03T02:34:47;10.10;;;6.90;;
55800;SDS011;41730;51.960;20.158;2022-08-03T02:37:25;9.60;;;6.90;;
55800;SDS011;41730;51.960;20.158;2022-08-03T02:40:02;10.00;;;7.40;;
55800;SDS011;41730;51.960;20.158;2022-08-03T02:42:38;8.10;;;7.20;;
55800;SDS011;41730;51.960;20.158;2022-08-03T02:45:14;12.00;;;7.40;;
55800;SDS011;41730;51.960;20.158;2022-08-03T02:47:52;12.60;;;7.90;;
55800;SDS011;41730;51.960;20.158;2022-08-03T02:50:29;8.40;;;6.90;;
55800;SDS011;41730;51.960;20.158;2022-08-03T02:53:04;8.80;;;7.10;;
55800;SDS011;41730;51.960;20.158;2022-08-03T02:55:41;9.40;;;7.00;;
55800;SDS011;41730;51.960;20.158;2022-08-03T02:58:17;10.50;;;7.10;;
55800;SDS011;41730;51.960;20.158;2022-08-03T03:00:53;9.80;;;7.30;;
55800;SDS011;41730;51.960;20.158;2022-08-03T03:03:28;11.40;;;7.10;;
55800;SDS011;41730;51.960;20.158;2022-08-03T03:06:12;9.00;;;7.10;;
55800;SDS011;41730;51.960;20.158;2022-08-03T03:08:47;10.50;;;7.40;;
55800;SDS011;41730;51.960;20.158;2022-08-03T03:11:26;9.40;;;6.90;;
55800;SDS011;41730;51.960;20.158;2022-08-03T03:13:59;8.20;;;6.70;;
55800;SDS011;41730;51.960;20.158;2022-08-03T03:16:35;9.60;;;7.30;;
55800;SDS011;41730;51.960;20.158;2022-08-03T03:19:08;8.80;;;6.60;;
55800;SDS011;41730;51.960;20.158;2022-08-03T03:21:42;11.70;;;7.20;;
55800;SDS011;41730;51.960;20.158;2022-08-03T03:24:14;9.00;;;7.30;;
55800;SDS011;41730;51.960;20.158;2022-08-03T03:26:46;8.00;;;6.60;;
55800;SDS011;41730;51.960;20.158;2022-08-03T03:29:18;9.40;;;6.80;;
55800;SDS011;41730;51.960;20.158;2022-08-03T03:31:50;11.80;;;6.70;;
55800;SDS011;41730;51.960;20.158;2022-08-03T03:34:23;10.00;;;7.50;;
55800;SDS011;41730;51.960;20.158;2022-08-03T03:37:00;8.00;;;7.20;;
55800;SDS011;41730;51.960;20.158;2022-08-03T03:39:37;8.40;;;7.00;;
55800;SDS011;41730;51.960;20.158;2022-08-03T03:42:11;8.40;;;7.40;;
55800;SDS011;41730;51.960;20.158;2022-08-03T03:44:43;8.30;;;6.80;;
55800;SDS011;41730;51.960;20.158;2022-08-03T03:47:15;14.10;;;7.10;;
55800;SDS011;41730;51.960;20.158;2022-08-03T03:50:00;10.90;;;7.10;;
55800;SDS011;41730;51.960;20.158;2022-08-03T03:52:34;8.10;;;6.20;;
55800;SDS011;41730;51.960;20.158;2022-08-03T03:55:06;9.30;;;7.10;;
55800;SDS011;41730;51.960;20.158;2022-08-03T03:57:38;10.50;;;6.50;;
55800;SDS011;41730;51.960;20.158;2022-08-03T04:00:11;8.60;;;6.70;;
55800;SDS011;41730;51.960;20.158;2022-08-03T04:02:45;8.60;;;6.90;;
55800;SDS011;41730;51.960;20.158;2022-08-03T04:05:17;10.00;;;6.60;;
55800;SDS011;41730;51.960;20.158;2022-08-03T04:08:13;10.50;;;6.60;;
55800;SDS011;41730;51.960;20.158;2022-08-03T04:11:04;9.40;;;6.60;;
55800;SDS011;41730;51.960;20.158;2022-08-03T04:13:41;10.40;;;7.10;;
55800;SDS011;41730;51.960;20.158;2022-08-03T04:16:18;9.80;;;7.10;;
55800;SDS011;41730;51.960;20.158;2022-08-03T04:18:54;9.40;;;7.70;;
55800;SDS011;41730;51.960;20.158;2022-08-03T04:21:30;13.20;;;8.10;;
55800;SDS011;41730;51.960;20.158;2022-08-03T04:24:07;8.70;;;7.10;;
55800;SDS011;41730;51.960;20.158;2022-08-03T04:26:42;10.20;;;7.60;;
55800;SDS011;41730;51.960;20.158;2022-08-03T04:29:19;9.10;;;7.20;;
55800;SDS011;41730;51.960;20.158;2022-08-03T04:31:54;8.50;;;7.30;;
55800;SDS011;41730;51.960;20.158;2022-08-03T04:34:30;13.90;;;8.60;;
55800;SDS011;41730;51.960;20.158;2022-08-03T04:37:03;8.40;;;7.40;;
55800;SDS011;41730;51.960;20.158;2022-08-03T04:39:40;11.30;;;8.80;;
55800;SDS011;41730;51.960;20.158;2022-08-03T04:42:12;11.30;;;8.40;;
55800;SDS011;41730;51.960;20.158;2022-08-03T04:44:46;12.80;;;8.20;;
55800;SDS011;41730;51.960;20.158;2022-08-03T04:47:19;13.10;;;7.70;;
55800;SDS011;41730;51.960;20.158;2022-08-03T04:49:51;11.20;;;7.50;;
55800;SDS011;41730;51.960;20.158;2022-08-03T04:52:23;13.70;;;8.40;;
55800;SDS011;41730;51.960;20.158;2022-08-03T04:54:55;10.80;;;7.80;;
55800;SDS011;41730;51.960;20.158;2022-08-03T04:57:27;12.70;;;8.30;;
55800;SDS011;41730;51.960;20.158;2022-08-03T04:59:58;13.50;;;8.60;;
55800;SDS011;41730;51.960;20.158;2022-08-03T05:02:30;10.50;;;7.70;;
55800;SDS011;41730;51.960;20.158;2022-08-03T05:05:02;10.00;;;7.20;;
55800;SDS011;41730;51.960;20.158;2022-08-03T05:07:34;10.00;;;7.20;;
55800;SDS011;41730;51.960;20.158;2022-08-03T05:10:07;9.40;;;7.30;;
55800;SDS011;41730;51.960;20.158;2022-08-03T05:12:43;8.80;;;6.90;;
55800;SDS011;41730;51.960;20.158;2022-08-03T05:15:16;9.10;;;6.90;;
55800;SDS011;41730;51.960;20.158;2022-08-03T05:17:47;10.20;;;6.90;;
55800;SDS011;41730;51.960;20.158;2022-08-03T05:20:19;13.00;;;6.50;;
55800;SDS011;41730;51.960;20.158;2022-08-03T05:22:51;9.00;;;6.60;;
55800;SDS011;41730;51.960;20.158;2022-08-03T05:25:22;6.50;;;5.50;;
55800;SDS011;41730;51.960;20.158;2022-08-03T05:27:54;7.70;;;5.90;;
55800;SDS011;41730;51.960;20.158;2022-08-03T05:30:25;7.90;;;6.30;;
55800;SDS011;41730;51.960;20.158;2022-08-03T05:33:01;6.40;;;5.30;;
55800;SDS011;41730;51.960;20.158;2022-08-03T05:35:33;6.20;;;5.40;;
55800;SDS011;41730;51.960;20.158;2022-08-03T05:38:26;6.80;;;5.60;;
55800;SDS011;41730;51.960;20.158;2022-08-03T05:41:02;8.10;;;5.30;;
55800;SDS011;41730;51.960;20.158;2022-08-03T05:43:51;6.90;;;5.50;;
55800;SDS011;41730;51.960;20.158;2022-08-03T05:46:23;7.40;;;5.00;;
55800;SDS011;41730;51.960;20.158;2022-08-03T05:48:55;7.50;;;5.40;;
55800;SDS011;41730;51.960;20.158;2022-08-03T05:51:27;10.70;;;6.10;;
55800;SDS011;41730;51.960;20.158;2022-08-03T05:53:59;7.50;;;5.70;;
55800;SDS011;41730;51.960;20.158;2022-08-03T05:56:30;6.30;;;5.70;;
55800;SDS011;41730;51.960;20.158;2022-08-03T05:59:02;7.60;;;5.50;;
55800;SDS011;41730;51.960;20.158;2022-08-03T06:01:53;6.90;;;5.90;;
55800;SDS011;41730;51.960;20.158;2022-08-03T06:04:25;8.90;;;5.70;;
55800;SDS011;41730;51.960;20.158;2022-08-03T06:06:57;8.20;;;5.20;;
55800;SDS011;41730;51.960;20.158;2022-08-03T06:09:29;7.40;;;5.10;;
55800;SDS011;41730;51.960;20.158;2022-08-03T06:12:20;7.60;;;5.20;;
55800;SDS011;41730;51.960;20.158;2022-08-03T06:14:52;5.80;;;4.70;;
55800;SDS011;41730;51.960;20.158;2022-08-03T06:17:23;7.60;;;4.60;;
55800;SDS011;41730;51.960;20.158;2022-08-03T06:20:05;5.30;;;3.90;;
55800;SDS011;41730;51.960;20.158;2022-08-03T06:22:38;4.70;;;3.90;;
55800;SDS011;41730;51.960;20.158;2022-08-03T06:25:18;5.40;;;4.00;;
55800;SDS011;41730;51.960;20.158;2022-08-03T06:27:51;9.10;;;5.60;;
55800;SDS011;41730;51.960;20.158;2022-08-03T06:30:22;6.40;;;5.00;;
55800;SDS011;41730;51.960;20.158;2022-08-03T06:32:54;7.60;;;5.40;;
55800;SDS011;41730;51.960;20.158;2022-08-03T06:35:26;10.50;;;5.40;;
55800;SDS011;41730;51.960;20.158;2022-08-03T06:37:57;7.80;;;5.50;;
55800;SDS011;41730;51.960;20.158;2022-08-03T06:40:29;8.10;;;5.10;;
55800;SDS011;41730;51.960;20.158;2022-08-03T06:43:07;8.60;;;5.40;;
55800;SDS011;41730;51.960;20.158;2022-08-03T06:45:42;5.90;;;5.30;;
55800;SDS011;41730;51.960;20.158;2022-08-03T06:48:15;11.30;;;8.30;;
55800;SDS011;41730;51.960;20.158;2022-08-03T06:50:46;8.40;;;6.40;;
55800;SDS011;41730;51.960;20.158;2022-08-03T06:53:18;11.20;;;6.60;;
55800;SDS011;41730;51.960;20.158;2022-08-03T06:55:50;8.30;;;6.20;;
55800;SDS011;41730;51.960;20.158;2022-08-03T06:58:22;5.80;;;4.30;;
55800;SDS011;41730;51.960;20.158;2022-08-03T07:00:54;4.60;;;4.10;;
55800;SDS011;41730;51.960;20.158;2022-08-03T07:03:26;4.70;;;3.40;;
55800;SDS011;41730;51.960;20.158;2022-08-03T07:05:57;5.60;;;3.40;;
55800;SDS011;41730;51.960;20.158;2022-08-03T07:08:30;4.00;;;3.10;;
55800;SDS011;41730;51.960;20.158;2022-08-03T07:11:01;6.30;;;3.20;;
55800;SDS011;41730;51.960;20.158;2022-08-03T07:13:33;6.20;;;2.90;;
55800;SDS011;41730;51.960;20.158;2022-08-03T07:16:06;4.50;;;3.50;;
55800;SDS011;41730;51.960;20.158;2022-08-03T07:18:38;5.10;;;3.50;;
55800;SDS011;41730;51.960;20.158;2022-08-03T07:21:10;4.90;;;3.20;;
55800;SDS011;41730;51.960;20.158;2022-08-03T07:23:43;3.70;;;3.10;;
55800;SDS011;41730;51.960;20.158;2022-08-03T07:26:15;4.20;;;2.60;;
55800;SDS011;41730;51.960;20.158;2022-08-03T07:28:47;5.50;;;2.80;;
55800;SDS011;41730;51.960;20.158;2022-08-03T07:31:18;4.40;;;2.80;;
55800;SDS011;41730;51.960;20.158;2022-08-03T07:33:50;4.00;;;2.70;;
55800;SDS011;41730;51.960;20.158;2022-08-03T07:36:22;4.90;;;3.30;;
55800;SDS011;41730;51.960;20.158;2022-08-03T07:38:54;6.40;;;3.10;;
55800;SDS011;41730;51.960;20.158;2022-08-03T07:41:26;3.90;;;2.90;;
55800;SDS011;41730;51.960;20.158;2022-08-03T07:43:59;5.00;;;3.10;;
55800;SDS011;41730;51.960;20.158;2022-08-03T07:46:30;3.70;;;2.60;;
55800;SDS011;41730;51.960;20.158;2022-08-03T07:49:02;4.40;;;3.00;;
55800;SDS011;41730;51.960;20.158;2022-08-03T07:51:34;5.00;;;3.10;;
55800;SDS011;41730;51.960;20.158;2022-08-03T07:54:06;5.80;;;2.90;;
55800;SDS011;41730;51.960;20.158;2022-08-03T07:56:39;4.20;;;3.00;;
55800;SDS011;41730;51.960;20.158;2022-08-03T07:59:10;6.20;;;3.10;;
55800;SDS011;41730;51.960;20.158;2022-08-03T08:01:42;7.10;;;3.10;;
55800;SDS011;41730;51.960;20.158;2022-08-03T08:04:14;4.30;;;2.80;;
55800;SDS011;41730;51.960;20.158;2022-08-03T08:06:46;5.00;;;2.80;;
55800;SDS011;41730;51.960;20.158;2022-08-03T08:09:17;4.60;;;3.20;;
55800;SDS011;41730;51.960;20.158;2022-08-03T08:11:49;5.20;;;3.20;;
55800;SDS011;41730;51.960;20.158;2022-08-03T08:14:21;4.70;;;3.00;;
55800;SDS011;41730;51.960;20.158;2022-08-03T08:16:53;8.10;;;3.20;;
55800;SDS011;41730;51.960;20.158;2022-08-03T08:19:25;4.00;;;2.60;;
55800;SDS011;41730;51.960;20.158;2022-08-03T08:21:59;7.80;;;3.20;;
55800;SDS011;41730;51.960;20.158;2022-08-03T08:24:32;8.90;;;3.70;;
55800;SDS011;41730;51.960;20.158;2022-08-03T08:27:06;10.20;;;3.20;;
55800;SDS011;41730;51.960;20.158;2022-08-03T08:29:39;7.80;;;3.50;;
55800;SDS011;41730;51.960;20.158;2022-08-03T08:32:22;8.40;;;3.50;;
55800;SDS011;41730;51.960;20.158;2022-08-03T08:34:53;8.70;;;3.60;;
55800;SDS011;41730;51.960;20.158;2022-08-03T08:37:25;6.40;;;3.00;;
55800;SDS011;41730;51.960;20.158;2022-08-03T08:39:57;7.00;;;3.60;;
55800;SDS011;41730;51.960;20.158;2022-08-03T08:42:29;5.30;;;3.40;;
55800;SDS011;41730;51.960;20.158;2022-08-03T08:45:01;7.00;;;3.60;;
55800;SDS011;41730;51.960;20.158;2022-08-03T08:47:37;7.50;;;3.50;;
55800;SDS011;41730;51.960;20.158;2022-08-03T08:50:18;6.30;;;3.40;;
55800;SDS011;41730;51.960;20.158;2022-08-03T08:52:55;7.60;;;3.20;;
55800;SDS011;41730;51.960;20.158;2022-08-03T08:55:28;4.90;;;2.70;;
55800;SDS011;41730;51.960;20.158;2022-08-03T08:58:23;4.60;;;2.80;;
55800;SDS011;41730;51.960;20.158;2022-08-03T09:03:27;6.60;;;3.00;;
55800;SDS011;41730;51.960;20.158;2022-08-03T09:06:01;6.10;;;2.40;;
55800;SDS011;41730;51.960;20.158;2022-08-03T09:08:33;3.10;;;2.00;;
55800;SDS011;41730;51.960;20.158;2022-08-03T09:11:05;5.60;;;2.30;;
55800;SDS011;41730;51.960;20.158;2022-08-03T09:13:39;4.80;;;2.30;;
55800;SDS011;41730;51.960;20.158;2022-08-03T09:16:15;4.10;;;2.10;;
55800;SDS011;41730;51.960;20.158;2022-08-03T09:18:48;4.40;;;2.10;;
55800;SDS011;41730;51.960;20.158;2022-08-03T09:21:22;2.50;;;2.00;;
55800;SDS011;41730;51.960;20.158;2022-08-03T09:24:00;3.20;;;1.70;;
55800;SDS011;41730;51.960;20.158;2022-08-03T09:26:49;3.60;;;1.90;;
55800;SDS011;41730;51.960;20.158;2022-08-03T09:29:21;3.00;;;2.00;;
55800;SDS011;41730;51.960;20.158;2022-08-03T09:31:58;3.80;;;2.30;;
55800;SDS011;41730;51.960;20.158;2022-08-03T09:34:31;4.50;;;2.60;;
55800;SDS011;41730;51.960;20.158;2022-08-03T09:37:02;3.30;;;2.10;;
55800;SDS011;41730;51.960;20.158;2022-08-03T09:39:45;3.00;;;2.10;;
55800;SDS011;41730;51.960;20.158;2022-08-03T09:42:17;3.00;;;2.00;;
55800;SDS011;41730;51.960;20.158;2022-08-03T09:44:50;2.80;;;2.30;;
55800;SDS011;41730;51.960;20.158;2022-08-03T09:47:28;3.10;;;2.30;;
55800;SDS011;41730;51.960;20.158;2022-08-03T09:50:01;2.80;;;2.40;;
55800;SDS011;41730;51.960;20.158;2022-08-03T09:52:34;4.40;;;2.70;;
55800;SDS011;41730;51.960;20.158;2022-08-03T09:55:19;5.00;;;2.40;;
55800;SDS011;41730;51.960;20.158;2022-08-03T09:58:12;3.50;;;2.40;;
55800;SDS011;41730;51.960;20.158;2022-08-03T10:00:53;2.90;;;2.40;;
55800;SDS011;41730;51.960;20.158;2022-08-03T10:03:26;3.60;;;2.40;;
55800;SDS011;41730;51.960;20.158;2022-08-03T10:05:59;4.10;;;2.40;;
55800;SDS011;41730;51.960;20.158;2022-08-03T10:08:46;4.20;;;2.80;;
55800;SDS011;41730;51.960;20.158;2022-08-03T10:11:32;3.20;;;2.40;;
55800;SDS011;41730;51.960;20.158;2022-08-03T10:14:09;4.00;;;2.70;;
55800;SDS011;41730;51.960;20.158;2022-08-03T10:16:46;3.50;;;2.50;;
55800;SDS011;41730;51.960;20.158;2022-08-03T10:19:18;6.60;;;2.40;;
55800;SDS011;41730;51.960;20.158;2022-08-03T10:21:52;5.70;;;2.80;;
55800;SDS011;41730;51.960;20.158;2022-08-03T10:24:27;3.60;;;2.70;;
55800;SDS011;41730;51.960;20.158;2022-08-03T10:27:03;4.50;;;2.50;;
55800;SDS011;41730;51.960;20.158;2022-08-03T10:29:37;3.20;;;2.40;;
55800;SDS011;41730;51.960;20.158;2022-08-03T10:32:14;3.10;;;2.30;;
55800;SDS011;41730;51.960;20.158;2022-08-03T10:34:50;3.10;;;2.50;;
55800;SDS011;41730;51.960;20.158;2022-08-03T10:37:27;3.50;;;2.30;;
55800;SDS011;41730;51.960;20.158;2022-08-03T10:40:01;5.50;;;2.90;;
55800;SDS011;41730;51.960;20.158;2022-08-03T10:42:35;3.10;;;2.60;;
55800;SDS011;41730;51.960;20.158;2022-08-03T10:45:08;3.80;;;2.80;;
55800;SDS011;41730;51.960;20.158;2022-08-03T10:47:47;3.40;;;2.70;;
55800;SDS011;41730;51.960;20.158;2022-08-03T10:50:21;3.00;;;2.60;;
55800;SDS011;41730;51.960;20.158;2022-08-03T10:52:55;2.90;;;2.60;;
55800;SDS011;41730;51.960;20.158;2022-08-03T10:55:31;3.60;;;2.80;;
55800;SDS011;41730;51.960;20.158;2022-08-03T11:04:27;2.90;;;2.40;;
55800;SDS011;41730;51.960;20.158;2022-08-03T11:07:18;3.80;;;2.70;;
55800;SDS011;41730;51.960;20.158;2022-08-03T11:09:52;4.20;;;3.10;;
55800;SDS011;41730;51.960;20.158;2022-08-03T11:12:26;3.20;;;2.90;;
55800;SDS011;41730;51.960;20.158;2022-08-03T11:15:01;3.30;;;2.80;;
55800;SDS011;41730;51.960;20.158;2022-08-03T11:17:36;3.80;;;2.70;;
55800;SDS011;41730;51.960;20.158;2022-08-03T11:23:15;3.80;;;3.10;;
55800;SDS011;41730;51.960;20.158;2022-08-03T11:26:08;3.70;;;3.00;;
55800;SDS011;41730;51.960;20.158;2022-08-03T11:28:46;4.40;;;2.70;;
55800;SDS011;41730;51.960;20.158;2022-08-03T11:34:19;4.50;;;2.90;;
55800;SDS011;41730;51.960;20.158;2022-08-03T11:40:00;6.90;;;2.90;;
55800;SDS011;41730;51.960;20.158;2022-08-03T11:42:38;3.90;;;3.00;;
55800;SDS011;41730;51.960;20.158;2022-08-03T11:45:14;4.20;;;2.80;;
55800;SDS011;41730;51.960;20.158;2022-08-03T11:47:47;3.30;;;3.00;;
55800;SDS011;41730;51.960;20.158;2022-08-03T11:50:21;4.50;;;3.10;;
55800;SDS011;41730;51.960;20.158;2022-08-03T11:52:53;4.00;;;3.20;;
55800;SDS011;41730;51.960;20.158;2022-08-03T11:55:25;4.90;;;3.40;;
55800;SDS011;41730;51.960;20.158;2022-08-03T11:57:59;4.60;;;2.90;;
55800;SDS011;41730;51.960;20.158;2022-08-03T12:00:50;3.10;;;2.80;;
55800;SDS011;41730;51.960;20.158;2022-08-03T12:03:33;4.00;;;3.60;;
55800;SDS011;41730;51.960;20.158;2022-08-03T12:06:05;3.80;;;3.20;;
55800;SDS011;41730;51.960;20.158;2022-08-03T12:08:40;3.00;;;2.70;;
55800;SDS011;41730;51.960;20.158;2022-08-03T12:11:13;4.00;;;3.00;;
55800;SDS011;41730;51.960;20.158;2022-08-03T12:13:47;5.60;;;3.50;;
55800;SDS011;41730;51.960;20.158;2022-08-03T12:16:39;3.20;;;2.90;;
55800;SDS011;41730;51.960;20.158;2022-08-03T12:19:16;5.50;;;2.90;;
55800;SDS011;41730;51.960;20.158;2022-08-03T12:21:48;4.30;;;3.40;;
55800;SDS011;41730;51.960;20.158;2022-08-03T12:24:24;4.10;;;3.40;;
55800;SDS011;41730;51.960;20.158;2022-08-03T12:27:08;6.80;;;3.20;;
55800;SDS011;41730;51.960;20.158;2022-08-03T12:29:40;4.30;;;3.20;;
55800;SDS011;41730;51.960;20.158;2022-08-03T12:32:26;4.40;;;3.50;;
55800;SDS011;41730;51.960;20.158;2022-08-03T12:34:59;3.70;;;3.30;;
55800;SDS011;41730;51.960;20.158;2022-08-03T12:37:33;3.70;;;3.40;;
55800;SDS011;41730;51.960;20.158;2022-08-03T12:40:06;6.20;;;3.50;;
55800;SDS011;41730;51.960;20.158;2022-08-03T12:42:46;3.70;;;3.30;;
55800;SDS011;41730;51.960;20.158;2022-08-03T12:45:18;4.60;;;3.90;;
55800;SDS011;41730;51.960;20.158;2022-08-03T12:47:53;3.90;;;3.50;;
55800;SDS011;41730;51.960;20.158;2022-08-03T12:50:27;3.20;;;2.80;;
55800;SDS011;41730;51.960;20.158;2022-08-03T12:55:36;3.60;;;3.30;;
55800;SDS011;41730;51.960;20.158;2022-08-03T12:58:31;5.20;;;3.70;;
55800;SDS011;41730;51.960;20.158;2022-08-03T13:01:04;5.00;;;3.50;;
55800;SDS011;41730;51.960;20.158;2022-08-03T13:03:41;3.90;;;3.50;;
55800;SDS011;41730;51.960;20.158;2022-08-03T13:06:20;5.20;;;3.90;;
55800;SDS011;41730;51.960;20.158;2022-08-03T13:09:02;4.10;;;3.50;;
55800;SDS011;41730;51.960;20.158;2022-08-03T13:11:35;4.10;;;3.10;;
55800;SDS011;41730;51.960;20.158;2022-08-03T13:14:27;4.30;;;3.50;;
55800;SDS011;41730;51.960;20.158;2022-08-03T13:16:58;5.10;;;3.80;;
55800;SDS011;41730;51.960;20.158;2022-08-03T13:19:31;4.00;;;3.40;;
55800;SDS011;41730;51.960;20.158;2022-08-03T13:22:10;3.90;;;3.50;;
55800;SDS011;41730;51.960;20.158;2022-08-03T13:24:43;6.30;;;4.30;;
55800;SDS011;41730;51.960;20.158;2022-08-03T13:27:16;3.90;;;3.50;;
55800;SDS011;41730;51.960;20.158;2022-08-03T13:30:09;4.30;;;3.90;;
55800;SDS011;41730;51.960;20.158;2022-08-03T13:32:51;5.30;;;4.20;;
55800;SDS011;41730;51.960;20.158;2022-08-03T13:35:26;4.10;;;3.70;;
55800;SDS011;41730;51.960;20.158;2022-08-03T13:37:58;4.60;;;3.60;;
55800;SDS011;41730;51.960;20.158;2022-08-03T13:40:29;4.70;;;3.50;;
55800;SDS011;41730;51.960;20.158;2022-08-03T13:43:08;3.90;;;3.50;;
55800;SDS011;41730;51.960;20.158;2022-08-03T13:45:40;4.30;;;3.70;;
55800;SDS011;41730;51.960;20.158;2022-08-03T13:48:20;4.20;;;3.80;;
55800;SDS011;41730;51.960;20.158;2022-08-03T13:53:49;11.10;;;3.60;;
55800;SDS011;41730;51.960;20.158;2022-08-03T13:56:21;4.10;;;3.40;;
55800;SDS011;41730;51.960;20.158;2022-08-03T13:58:53;4.10;;;3.70;;
55800;SDS011;41730;51.960;20.158;2022-08-03T14:01:25;4.10;;;3.70;;
55800;SDS011;41730;51.960;20.158;2022-08-03T14:04:16;5.30;;;3.80;;
55800;SDS011;41730;51.960;20.158;2022-08-03T14:06:49;4.10;;;3.70;;
55800;SDS011;41730;51.960;20.158;2022-08-03T14:09:21;4.10;;;3.70;;
55800;SDS011;41730;51.960;20.158;2022-08-03T14:11:52;4.80;;;3.90;;
55800;SDS011;41730;51.960;20.158;2022-08-03T14:14:35;4.20;;;3.80;;
55800;SDS011;41730;51.960;20.158;2022-08-03T14:17:07;4.00;;;3.60;;
55800;SDS011;41730;51.960;20.158;2022-08-03T14:19:39;4.10;;;3.70;;
55800;SDS011;41730;51.960;20.158;2022-08-03T14:22:20;3.90;;;3.40;;
55800;SDS011;41730;51.960;20.158;2022-08-03T14:24:52;4.60;;;3.80;;
55800;SDS011;41730;51.960;20.158;2022-08-03T14:27:24;5.10;;;3.90;;
55800;SDS011;41730;51.960;20.158;2022-08-03T14:29:56;4.60;;;4.10;;
55800;SDS011;41730;51.960;20.158;2022-08-03T14:32:29;6.20;;;4.00;;
55800;SDS011;41730;51.960;20.158;2022-08-03T14:35:00;4.40;;;3.80;;
55800;SDS011;41730;51.960;20.158;2022-08-03T14:37:32;5.30;;;4.10;;
55800;SDS011;41730;51.960;20.158;2022-08-03T14:40:06;4.40;;;3.70;;
55800;SDS011;41730;51.960;20.158;2022-08-03T14:42:38;5.30;;;4.00;;
55800;SDS011;41730;51.960;20.158;2022-08-03T14:45:10;7.00;;;4.10;;
55800;SDS011;41730;51.960;20.158;2022-08-03T14:47:47;4.90;;;3.80;;
55800;SDS011;41730;51.960;20.158;2022-08-03T14:50:39;5.00;;;4.50;;
55800;SDS011;41730;51.960;20.158;2022-08-03T14:53:17;5.20;;;4.20;;
55800;SDS011;41730;51.960;20.158;2022-08-03T14:55:52;6.10;;;4.10;;
55800;SDS011;41730;51.960;20.158;2022-08-03T14:58:24;5.80;;;4.10;;
55800;SDS011;41730;51.960;20.158;2022-08-03T15:00:56;6.50;;;3.60;;
55800;SDS011;41730;51.960;20.158;2022-08-03T15:03:27;4.50;;;3.80;;
55800;SDS011;41730;51.960;20.158;2022-08-03T15:05:59;6.60;;;4.30;;
55800;SDS011;41730;51.960;20.158;2022-08-03T15:08:30;5.40;;;4.30;;
55800;SDS011;41730;51.960;20.158;2022-08-03T15:11:02;4.50;;;4.10;;
55800;SDS011;41730;51.960;20.158;2022-08-03T15:13:34;5.00;;;4.00;;
55800;SDS011;41730;51.960;20.158;2022-08-03T15:16:06;5.00;;;4.50;;
55800;SDS011;41730;51.960;20.158;2022-08-03T15:18:38;4.80;;;3.80;;
55800;SDS011;41730;51.960;20.158;2022-08-03T15:21:09;5.40;;;4.30;;
55800;SDS011;41730;51.960;20.158;2022-08-03T15:24:01;4.90;;;4.40;;
55800;SDS011;41730;51.960;20.158;2022-08-03T15:26:34;7.50;;;4.50;;
55800;SDS011;41730;51.960;20.158;2022-08-03T15:29:08;5.30;;;4.20;;
55800;SDS011;41730;51.960;20.158;2022-08-03T15:32:00;4.30;;;3.80;;
55800;SDS011;41730;51.960;20.158;2022-08-03T15:34:36;4.60;;;4.10;;
55800;SDS011;41730;51.960;20.158;2022-08-03T15:37:17;5.90;;;4.40;;
55800;SDS011;41730;51.960;20.158;2022-08-03T15:39:50;4.80;;;4.30;;
55800;SDS011;41730;51.960;20.158;2022-08-03T15:42:28;5.00;;;4.30;;
55800;SDS011;41730;51.960;20.158;2022-08-03T15:45:01;5.20;;;4.40;;